This is the latest recevied weather packets stored in our database for station/object KA1BMF-13. If no packets are shown the sender has not sent any weather packets the latest 10 day(s).
| Time | Temp. | Humidity | Pressure | Rain* | Wind** | Luminosity | Snow |
|---|---|---|---|---|---|---|---|
| 1777997121 | 20.56° C | 62% | 1010.1 hPa | 0 mm | - | 886 W/m² | - |
| 1777986920 | 15° C | 80% | 1010.3 hPa | 0 mm | - | 552 W/m² | - |
| 1777986328 | 14.44° C | 81% | 1010.5 hPa | 0 mm | - | 266 W/m² | - |
| 1777983319 | 12.78° C | 88% | 1011 hPa | 0 mm | - | 134 W/m² | - |
| 1777981520 | 11.67° C | 93% | 1011.1 hPa | 0 mm | - | 69 W/m² | - |
| 1777980940 | 11.11° C | 94% | 1011.2 hPa | 0 mm | - | 75 W/m² | - |
| 1777979720 | 11.11° C | 95% | 1011 hPa | 0 mm | - | 54 W/m² | - |
| 1777977317 | 9.44° C | 95% | 1010.4 hPa | 0 mm | - | 29 W/m² | - |
| 1777971360 | 8.33° C | 93% | 1009.9 hPa | 0 mm | - | 0 W/m² | - |
| 1777970120 | 8.33° C | 93% | 1010.1 hPa | 0 mm | - | 0 W/m² | - |
| 1777967720 | 8.33° C | 92% | 1010 hPa | 0 mm | - | 0 W/m² | - |
| 1777964721 | 8.33° C | 91% | 1010.1 hPa | 0 mm | - | 0 W/m² | - |
| 1777962919 | 8.33° C | 90% | 1010.2 hPa | 0 mm | - | 0 W/m² | - |
| 1777961120 | 8.89° C | 89% | 1010.3 hPa | 0 mm | - | 0 W/m² | - |
| 1777959317 | 8.89° C | 88% | 1010.6 hPa | 0 mm | - | 0 W/m² | - |
| 1777955722 | 9.44° C | 85% | 1010.9 hPa | 0 mm | - | 0 W/m² | - |
| 1777955121 | 9.44° C | 84% | 1010.9 hPa | 0 mm | - | 0 W/m² | - |
| 1777954518 | 10° C | 84% | 1010.9 hPa | 0 mm | - | 0 W/m² | - |
| 1777949720 | 11.11° C | 79% | 1010.8 hPa | 0 mm | - | 0 W/m² | - |
| 1777947920 | 11.67° C | 76% | 1010.9 hPa | 0 mm | - | 0 W/m² | - |
| 1777947321 | 12.22° C | 75% | 1010.9 hPa | 0 mm | - | 0 W/m² | - |
| 1777943119 | 13.33° C | 69% | 1010.5 hPa | 0 mm | - | 0 W/m² | - |
| 1777935918 | 16.11° C | 57% | 1009 hPa | 0 mm | - | 28 W/m² | - |
| 1777932919 | 17.22° C | 53% | 1009 hPa | 0 mm | - | 47 W/m² | - |
| 1777932319 | 17.78° C | 52% | 1009.1 hPa | 0 mm | - | 51 W/m² | - |
* Rain latest hour (hover to see other rain measurements)
** Current wind speed in m/s (hover to see current wind gust speed)